Data for 04/26/2008

Time Sea-Level Adjusted Pressure Absolute Pressure Temperature Relative Humidity Dew Point   
(mb) (inHg) (mb) (inHg) (C) (F) (%) (C) (F)
00:05 1024 30.24 853 25.19 -1.6 29.2 97 -2 28.3
00:10 1024 30.24 853 25.19 -1.5 29.3 97 -2 28.5
00:15 1024 30.24 853 25.19 -1.4 29.4 97 -1.9 28.6
00:20 1024 30.24 853 25.19 -1.4 29.6 97 -1.8 28.7
00:25 1024 30.24 853 25.19 -1.3 29.7 97 -1.8 28.8
00:30 1024 30.24 853 25.19 -1.3 29.7 96 -1.8 28.7
00:35 1024 30.24 853 25.19 -1.2 29.8 96 -1.8 28.8
00:40 1024 30.24 853 25.19 -1.2 29.9 96 -1.8 28.8
00:45 1024 30.24 853 25.19 -1.2 29.8 96 -1.9 28.6
00:50 1024 30.24 853 25.19 -1.3 29.7 96 -1.9 28.6
00:55 1024 30.24 853 25.19 -1.3 29.7 96 -1.9 28.5
01:00 1024 30.24 853 25.19 -1.3 29.6 95 -2 28.4
01:05 1024 30.24 854 25.22 -1.4 29.4 95 -2.1 28.2
01:10 1024 30.24 854 25.22 -1.8 28.7 96 -2.4 27.8
01:15 1024 30.24 854 25.22 -2 28.3 97 -2.5 27.6
01:20 1024 30.24 854 25.22 -2.1 28.2 97 -2.5 27.6
01:25 1024 30.24 854 25.22 -2.1 28.3 97 -2.5 27.6
01:30 1024 30.24 854 25.22 -2 28.4 97 -2.4 27.7
01:35 1024 30.24 854 25.22 -2 28.4 97 -2.4 27.7
01:40 1024 30.24 854 25.22 -2 28.3 97 -2.5 27.5
01:45 1024 30.24 854 25.22 -2 28.4 97 -2.5 27.5
01:50 1024 30.24 854 25.22 -1.9 28.6 96 -2.4 27.6
01:55 1024 30.24 854 25.22 -1.8 28.8 95 -2.5 27.5
02:00 1024 30.24 853 25.19 -1.8 28.7 94 -2.7 27.1
02:05 1024 30.24 854 25.22 -1.8 28.8 92 -2.9 26.7
02:10 1024 30.24 854 25.22 -1.8 28.7 90 -3.2 26.3
02:15 1024 30.24 854 25.22 -1.8 28.7 89 -3.4 25.8
02:20 1024 30.24 854 25.22 -1.8 28.7 87 -3.8 25.2
02:25 1024 30.24 854 25.22 -1.8 28.7 84 -4.2 24.5
02:30 1024 30.24 854 25.22 -1.8 28.7 83 -4.3 24.3
02:35 1024 30.24 854 25.22 -1.7 28.9 82 -4.4 24
02:40 1024 30.24 854 25.22 -1.7 29 79 -4.8 23.3
02:45 1024 30.24 854 25.22 -1.6 29 79 -4.8 23.3
02:50 1024 30.24 854 25.22 -1.5 29.2 79 -4.7 23.5
02:55 1024 30.24 854 25.22 -1.5 29.3 79 -4.7 23.5
03:00 1024 30.24 854 25.22 -1.5 29.3 78 -4.8 23.3
03:05 1024 30.24 854 25.22 -1.5 29.3 78 -4.8 23.3
03:10 1024 30.24 854 25.22 -1.5 29.2 76 -5.1 22.7
03:15 1024 30.24 854 25.22 -1.4 29.4 75 -5.3 22.4
03:20 1024 30.24 854 25.22 -1.3 29.6 73 -5.5 22.1
03:25 1024 30.24 854 25.22 -1.3 29.7 72 -5.6 21.9
03:30 1025 30.27 854 25.22 -1.3 29.7 73 -5.6 22
03:35 1025 30.27 854 25.22 -1.3 29.7 73 -5.6 22
03:40 1025 30.27 854 25.22 -1.2 29.9 70 -5.9 21.4
03:45 1025 30.27 854 25.22 -0.9 30.5 69 -5.9 21.3
03:50 1025 30.27 854 25.22 -0.8 30.5 68 -6 21.3
03:55 1025 30.27 854 25.22 -1 30.3 68 -6.1 21.1
04:00 1025 30.27 854 25.22 -1.1 30.1 68 -6.2 20.9
04:05 1025 30.27 854 25.22 -1 30.2 69 -6.1 21.1
04:10 1025 30.27 854 25.22 -1 30.2 68 -6.1 21
04:15 1025 30.27 854 25.22 -1.1 30.1 68 -6.2 20.9
04:20 1025 30.27 854 25.22 -1.1 30.1 68 -6.3 20.7
04:25 1025 30.27 854 25.22 -1 30.1 67 -6.4 20.5
04:30 1025 30.27 854 25.22 -1.1 30.1 67 -6.4 20.5
04:35 1025 30.27 854 25.22 -1.1 30.1 67 -6.3 20.6
04:40 1025 30.27 854 25.22 -0.9 30.4 65 -6.7 20
04:45 1025 30.27 854 25.22 -0.8 30.6 64 -6.8 19.8
04:50 1025 30.27 854 25.22 -0.8 30.6 65 -6.6 20.2
04:55 1025 30.27 854 25.22 -0.9 30.4 66 -6.5 20.3
05:00 1025 30.27 854 25.22 -1 30.2 66 -6.5 20.2
05:05 1025 30.27 854 25.22 -1 30.2 66 -6.6 20.1
05:10 1025 30.27 854 25.22 -1.1 30.1 66 -6.6 20.2
05:15 1025 30.27 854 25.22 -1.2 29.9 67 -6.6 20.1
05:20 1025 30.27 854 25.22 -1.2 29.9 66 -6.7 20
05:25 1025 30.27 855 25.25 -1.2 29.9 66 -6.8 19.8
05:30 1025 30.27 855 25.25 -1.1 30 65 -6.8 19.7
05:35 1026 30.3 855 25.25 -1.1 29.9 66 -6.7 19.9
05:40 1026 30.3 855 25.25 -1.1 30 67 -6.4 20.4
05:45 1026 30.3 855 25.25 -1.3 29.6 72 -5.8 21.5
05:50 1026 30.3 855 25.25 -1.6 29.2 75 -5.5 22
05:55 1026 30.3 855 25.25 -1.5 29.3 75 -5.4 22.3
06:00 1026 30.3 855 25.25 -1.4 29.4 74 -5.5 22.1
06:05 1026 30.3 855 25.25 -1.3 29.6 73 -5.5 22.2
06:10 1026 30.3 855 25.25 -1.4 29.5 74 -5.4 22.3
06:15 1026 30.3 855 25.25 -1.6 29.1 76 -5.3 22.5
06:20 1026 30.3 855 25.25 -1.7 29 77 -5.2 22.7
06:25 1026 30.3 855 25.25 -1.6 29.1 77 -5.1 22.8
06:30 1026 30.3 855 25.25 -1.6 29.2 77 -5.1 22.8
06:35 1026 30.3 855 25.25 -1.7 29 77 -5.2 22.6
06:40 1026 30.3 855 25.25 -1.7 29 77 -5.2 22.6
06:45 1026 30.3 855 25.25 -1.8 28.8 77 -5.3 22.5
06:50 1026 30.3 855 25.25 -1.9 28.6 77 -5.4 22.4
06:55 1026 30.3 855 25.25 -1.8 28.7 77 -5.4 22.3
07:00 1026 30.3 855 25.25 -1.7 28.9 76 -5.4 22.2
07:05 1026 30.3 856 25.28 -1.6 29.2 75 -5.4 22.3
07:10 1026 30.3 856 25.28 -1.5 29.3 75 -5.4 22.2
07:15 1026 30.3 856 25.28 -1.4 29.4 74 -5.5 22.1
07:20 1026 30.3 856 25.28 -1.2 29.8 73 -5.4 22.3
07:25 1026 30.3 856 25.28 -1.2 29.9 71 -5.7 21.8
07:30 1027 30.33 856 25.28 -0.9 30.3 71 -5.5 22.1
07:35 1027 30.33 856 25.28 -0.7 30.8 70 -5.4 22.2
07:40 1027 30.33 856 25.28 -0.5 31.1 70 -5.4 22.3
07:45 1027 30.33 856 25.28 -0.4 31.3 70 -5.2 22.6
07:50 1027 30.33 856 25.28 -0.3 31.4 70 -5.2 22.7
07:55 1027 30.33 856 25.28 -0.5 31.1 71 -5.1 22.8
08:00 1027 30.33 856 25.28 -0.6 30.9 72 -5.1 22.8
08:05 1027 30.33 856 25.28 -0.4 31.3 72 -4.8 23.4
08:10 1027 30.33 856 25.28 -0.2 31.6 71 -4.9 23.2
08:15 1027 30.33 856 25.28 -0.6 31 71 -5.1 22.8
08:20 1027 30.33 856 25.28 -0.3 31.5 69 -5.3 22.4
08:25 1027 30.33 856 25.28 -0.2 31.7 69 -5.3 22.5
08:30 1027 30.33 856 25.28 0.3 32.5 66 -5.3 22.5
08:35 1027 30.33 856 25.28 0.8 33.4 63 -5.4 22.3
08:40 1027 30.33 856 25.28 1 33.7 62 -5.5 22.1
08:45 1027 30.33 856 25.28 1 33.8 61 -5.7 21.8
08:50 1027 30.33 856 25.28 1.4 34.6 59 -5.7 21.8
08:55 1027 30.33 857 25.31 1.6 34.9 58 -5.8 21.5
09:00 1027 30.33 857 25.31 1.3 34.3 58 -6.2 20.9
09:05 1027 30.33 857 25.31 1 33.8 60 -5.9 21.4
09:10 1027 30.33 857 25.31 0.8 33.4 61 -6 21.3
09:15 1027 30.33 857 25.31 0.5 32.9 60 -6.3 20.6
09:20 1027 30.33 857 25.31 0.6 33 60 -6.3 20.6
09:25 1027 30.33 857 25.31 1.7 35 55 -6.4 20.5
09:30 1028 30.36 857 25.31 2.1 35.7 54 -6.4 20.5
09:35 1028 30.36 857 25.31 2.2 36 54 -6.2 20.8
09:40 1028 30.36 857 25.31 2.4 36.3 53 -6.3 20.7
09:45 1028 30.36 857 25.31 2.9 37.2 52 -6 21.1
09:50 1028 30.36 857 25.31 3.1 37.6 52 -5.9 21.4
09:55 1028 30.36 857 25.31 2.8 37.1 53 -5.9 21.3
10:00 1028 30.36 857 25.31 4.1 39.4 49 -5.6 21.9
10:05 1028 30.36 857 25.31 3.6 38.6 52 -5.4 22.3
10:10 1028 30.36 857 25.31 2.7 36.9 53 -5.9 21.4
10:15 1028 30.36 857 25.31 3 37.4 52 -6 21.2
10:20 1028 30.36 857 25.31 2.8 37.1 50 -6.7 20
10:25 1028 30.36 857 25.31 2.6 36.6 48 -7.2 19
10:30 1028 30.36 857 25.31 2.7 36.9 47 -7.4 18.7
10:35 1028 30.36 857 25.31 3.4 38.1 47 -7 19.5
10:40 1028 30.36 857 25.31 3.5 38.3 45 -7.2 19
10:45 1028 30.36 857 25.31 3.4 38.1 46 -7.2 19
10:50 1028 30.36 857 25.31 3.5 38.3 45 -7.4 18.8
10:55 1028 30.36 857 25.31 3.7 38.6 45 -7.1 19.2
11:00 1028 30.36 857 25.31 3.3 37.9 46 -7.3 18.9
11:05 1028 30.36 857 25.31 3 37.5 47 -7.1 19.3
11:10 1028 30.36 857 25.31 3.4 38.1 47 -6.9 19.7
11:15 1028 30.36 857 25.31 4.1 39.4 46 -6.6 20.2
11:20 1028 30.36 857 25.31 4.7 40.4 43 -6.8 19.7
11:25 1028 30.36 857 25.31 4.4 40 43 -7 19.4
11:30 1028 30.36 857 25.31 4.3 39.7 42 -7.4 18.7
11:35 1028 30.36 857 25.31 4.6 40.3 41 -7.5 18.5
11:40 1028 30.36 857 25.31 4.8 40.7 42 -7.1 19.1
11:45 1028 30.36 857 25.31 4.9 40.8 41 -7.2 19.1
11:50 1028 30.36 857 25.31 5 41 40 -7.5 18.5
11:55 1028 30.36 857 25.31 5.6 42.1 38 -7.7 18.1
12:00 1028 30.36 857 25.31 5.8 42.4 38 -7.5 18.5
12:05 1028 30.36 857 25.31 5.4 41.6 40 -7.2 19.1
12:10 1028 30.36 857 25.31 5.3 41.5 40 -7.4 18.7
12:15 1028 30.36 857 25.31 5.5 41.9 39 -7.4 18.7
12:20 1028 30.36 857 25.31 5.7 42.3 38 -7.4 18.6
12:25 1028 30.36 857 25.31 5.2 41.3 39 -7.7 18.2
12:30 1028 30.36 857 25.31 4.9 40.8 40 -7.5 18.4
12:35 1028 30.36 857 25.31 4.9 40.9 41 -7.2 19
12:40 1028 30.36 857 25.31 5.3 41.6 40 -7.3 18.8
12:45 1028 30.36 857 25.31 5.1 41.2 39 -7.8 18
12:50 1028 30.36 857 25.31 5 41 40 -7.6 18.3
12:55 1028 30.36 857 25.31 5.5 41.8 37 -8.2 17.2
13:00 1028 30.36 857 25.31 5.9 42.7 37 -7.8 18
13:05 1028 30.36 857 25.31 6 42.8 36 -8 17.5
13:10 1028 30.36 857 25.31 5.8 42.4 35 -8.4 16.8
13:15 1028 30.36 857 25.31 6.3 43.3 35 -8.2 17.3
13:20 1028 30.36 857 25.31 6.6 43.8 35 -7.8 18
13:25 1028 30.36 857 25.31 6.8 44.2 35 -7.5 18.6
13:30 1028 30.36 857 25.31 7 44.6 35 -7.6 18.3
13:35 1028 30.36 857 25.31 6.8 44.2 37 -6.7 19.9
13:40 1028 30.36 857 25.31 6.7 44 36 -7.3 18.8
13:45 1028 30.36 857 25.31 7.2 45 36 -7 19.4
13:50 1028 30.36 857 25.31 6.8 44.2 35 -7.6 18.3
13:55 1028 30.36 857 25.31 6.6 43.8 36 -7.5 18.6
14:00 1028 30.36 857 25.31 6.5 43.7 36 -7.4 18.6
14:05 1028 30.36 857 25.31 5.9 42.6 38 -7.3 18.8
14:10 1028 30.36 857 25.31 6 42.7 38 -7.4 18.8
14:15 1028 30.36 857 25.31 6.4 43.5 37 -7.1 19.1
14:20 1028 30.36 857 25.31 7 44.6 35 -7.6 18.4
14:25 1028 30.36 857 25.31 7.3 45.1 36 -6.6 20.1
14:30 1028 30.36 857 25.31 5.9 42.6 40 -6.6 20.2
14:35 1028 30.36 857 25.31 5.4 41.7 40 -7.3 18.9
14:40 1028 30.36 857 25.31 5.7 42.3 40 -6.9 19.5
14:45 1028 30.36 857 25.31 5.7 42.3 39 -7 19.3
14:50 1028 30.36 857 25.31 5.7 42.2 37 -7.8 17.9
14:55 1028 30.36 857 25.31 6 42.8 39 -6.9 19.6
15:00 1028 30.36 857 25.31 6.9 44.3 38 -6.3 20.6
15:05 1028 30.36 857 25.31 7.1 44.7 34 -7.6 18.3
15:10 1028 30.36 857 25.31 6.7 44 34 -8.2 17.2
15:15 1028 30.36 857 25.31 7.2 45 34 -7.6 18.3
15:20 1028 30.36 857 25.31 6.5 43.6 35 -7.9 17.7
15:25 1028 30.36 857 25.31 6.4 43.5 37 -7.3 18.9
15:30 1028 30.36 857 25.31 6.7 44.1 36 -7.4 18.6
15:35 1028 30.36 857 25.31 6.4 43.5 38 -6.8 19.8
15:40 1028 30.36 857 25.31 6.4 43.5 36 -7.5 18.5
15:45 1028 30.36 857 25.31 6.8 44.3 38 -6.4 20.4
15:50 1028 30.36 857 25.31 7.9 46.2 35 -6.8 19.8
15:55 1028 30.36 857 25.31 8.3 47 32 -7.2 19
16:00 1028 30.36 857 25.31 8.1 46.6 34 -6.9 19.6
16:05 1028 30.36 857 25.31 7.7 45.9 34 -7.1 19.1
16:10 1028 30.36 857 25.31 7 44.6 35 -7.3 18.8
16:15 1028 30.36 857 25.31 7.3 45.1 36 -6.7 20
16:20 1028 30.36 857 25.31 7.5 45.5 37 -6.1 21
16:25 1028 30.36 857 25.31 8.5 47.3 35 -6 21.2
16:30 1028 30.36 857 25.31 8.4 47.1 35 -6.2 20.9
16:35 1028 30.36 857 25.31 7.7 45.8 33 -7.5 18.6
16:40 1028 30.36 857 25.31 7.4 45.4 37 -6.4 20.4
16:45 1028 30.36 857 25.31 8 46.5 33 -7.2 19
16:50 1028 30.36 857 25.31 8.2 46.7 34 -6.8 19.7
16:55 1028 30.36 857 25.31 7.5 45.4 35 -7.2 19.1
17:00 1028 30.36 857 25.31 7.6 45.8 32 -7.9 17.8
17:05 1028 30.36 857 25.31 8.3 46.9 33 -7.2 19.1
17:10 1028 30.36 857 25.31 8.5 47.3 34 -6.3 20.7
17:15 1028 30.36 857 25.31 8.6 47.6 32 -6.9 19.5
17:20 1028 30.36 857 25.31 8.8 47.8 32 -7.1 19.3
17:25 1028 30.36 857 25.31 8.9 48 31 -7.3 18.9
17:30 1028 30.36 857 25.31 9.3 48.7 30 -7.5 18.4
17:35 1028 30.36 857 25.31 9.2 48.5 31 -7.3 18.9
17:40 1028 30.36 857 25.31 9.4 48.9 31 -7.1 19.2
17:45 1028 30.36 857 25.31 9.7 49.4 30 -7.1 19.2
17:50 1028 30.36 857 25.31 9.6 49.2 29 -7.5 18.6
17:55 1028 30.36 857 25.31 9.3 48.8 31 -6.9 19.7
18:00 1028 30.36 857 25.31 9.3 48.7 30 -7.3 18.8
18:05 1028 30.36 857 25.31 8.8 47.9 30 -7.7 18.1
18:10 1028 30.36 857 25.31 8.5 47.4 31 -7.6 18.4
18:15 1028 30.36 857 25.31 8.4 47.1 31 -7.7 18.2
18:20 1028 30.36 857 25.31 8.6 47.5 33 -6.9 19.6
18:25 1028 30.36 857 25.31 8.6 47.4 32 -7 19.3
18:30 1028 30.36 857 25.31 8 46.4 34 -7 19.3
18:35 1028 30.36 857 25.31 8 46.3 33 -7.2 19.1
18:40 1028 30.36 857 25.31 8 46.5 33 -7.2 19
18:45 1028 30.36 857 25.31 8 46.4 33 -7.3 18.8
18:50 1028 30.36 857 25.31 8 46.3 33 -7.3 18.9
18:55 1028 30.36 857 25.31 7.9 46.3 33 -7.4 18.7
19:00 1028 30.36 857 25.31 7.8 46.1 34 -7 19.4
19:05 1028 30.36 857 25.31 7.8 46 33 -7.5 18.4
19:10 1028 30.36 857 25.31 7.8 46.1 33 -7.4 18.6
19:15 1027 30.33 857 25.31 7.8 46 33 -7.6 18.4
19:20 1027 30.33 857 25.31 7.7 45.9 33 -7.5 18.5
19:25 1027 30.33 857 25.31 7.6 45.6 34 -7.2 19
19:30 1027 30.33 857 25.31 7.6 45.7 33 -7.6 18.3
19:35 1027 30.33 857 25.31 7.6 45.7 34 -7.4 18.7
19:40 1027 30.33 857 25.31 7.7 45.9 33 -7.7 18.2
19:45 1027 30.33 857 25.31 7.5 45.6 33 -7.9 17.8
19:50 1027 30.33 857 25.31 7.5 45.6 34 -7.4 18.6
19:55 1027 30.33 856 25.28 7.5 45.5 34 -7.2 19
20:00 1027 30.33 856 25.28 7.5 45.5 34 -7.4 18.7
20:05 1027 30.33 856 25.28 7.4 45.4 33 -7.7 18.2
20:10 1027 30.33 856 25.28 7.5 45.5 33 -7.7 18.2
20:15 1027 30.33 856 25.28 7.4 45.4 34 -7.5 18.5
20:20 1027 30.33 856 25.28 7.3 45.2 33 -7.8 18
20:25 1027 30.33 856 25.28 7.2 45 34 -7.6 18.4
20:30 1027 30.33 856 25.28 7.1 44.8 36 -6.8 19.7
20:35 1027 30.33 856 25.28 6.8 44.3 40 -5.7 21.7
20:40 1027 30.33 857 25.31 6.4 43.6 44 -4.9 23.2
20:45 1027 30.33 857 25.31 5.9 42.6 48 -4.4 24.1
20:50 1027 30.33 857 25.31 5.3 41.5 51 -4.1 24.6
20:55 1027 30.33 857 25.31 4.8 40.6 53 -4 24.9
21:00 1027 30.33 857 25.31 4.3 39.8 55 -3.9 24.9
21:05 1027 30.33 857 25.31 4 39.2 57 -3.8 25.2
21:10 1027 30.33 857 25.31 3.8 38.8 58 -3.8 25.2
21:15 1027 30.33 857 25.31 3.6 38.5 59 -3.7 25.3
21:20 1027 30.33 857 25.31 3.4 38.1 60 -3.7 25.4
21:25 1027 30.33 857 25.31 3.1 37.6 60 -3.9 24.9
21:30 1028 30.36 857 25.31 3 37.3 60 -4.1 24.7
21:35 1028 30.36 857 25.31 2.9 37.3 60 -4 24.8
21:40 1028 30.36 857 25.31 2.8 37.1 60 -4.1 24.7
21:45 1028 30.36 857 25.31 2.8 37 60 -4.2 24.4
21:50 1028 30.36 857 25.31 2.7 36.8 62 -4 24.9
21:55 1028 30.36 857 25.31 2.4 36.3 63 -3.9 25
22:00 1028 30.36 857 25.31 2.3 36.1 63 -4 24.7
22:05 1028 30.36 857 25.31 2.3 36.2 63 -4 24.7
22:10 1028 30.36 857 25.31 2.4 36.2 64 -3.8 25.1
22:15 1028 30.36 857 25.31 2.2 36 64 -4 24.8
22:20 1028 30.36 857 25.31 2.2 36 64 -3.9 25
22:25 1028 30.36 857 25.31 2 35.6 65 -3.9 24.9
22:30 1028 30.36 857 25.31 1.9 35.5 64 -4.1 24.6
22:35 1028 30.36 857 25.31 2 35.6 64 -4.1 24.7
22:40 1028 30.36 857 25.31 2 35.5 65 -3.9 24.9
22:45 1028 30.36 857 25.31 1.8 35.2 66 -3.8 25.1
22:50 1028 30.36 857 25.31 1.6 34.8 67 -4 24.8
22:55 1028 30.36 857 25.31 1.5 34.7 67 -4 24.9
23:00 1028 30.36 857 25.31 1.4 34.6 67 -4 24.8
23:05 1028 30.36 857 25.31 1.4 34.5 67 -4.1 24.6
23:10 1028 30.36 857 25.31 1.6 34.8 65 -4.4 24.1
23:15 1028 30.36 857 25.31 2 35.6 62 -4.5 23.9
23:20 1028 30.36 857 25.31 2.2 36 62 -4.4 24.1
23:25 1028 30.36 857 25.31 2.1 35.8 61 -4.6 23.7
23:30 1028 30.36 857 25.31 2.1 35.7 62 -4.4 24
23:35 1028 30.36 857 25.31 1.8 35.3 63 -4.5 24
23:40 1028 30.36 857 25.31 1.6 34.9 64 -4.5 23.8
23:45 1028 30.36 857 25.31 1.4 34.6 64 -4.7 23.6
23:50 1028 30.36 857 25.31 1.4 34.6 65 -4.5 24
23:55 1028 30.36 857 25.31 1.3 34.3 65 -4.6 23.7
24:00 1028 30.36 857 25.31 1.5 34.7 64 -4.6 23.8